Time;durP1;ratioP1;P1;durP2;ratioP2;P2;SDS_P1;SDS_P2;PMS_P1;PMS_P2;Temp;Humidity;BMP_temperature;BMP_pressure;BME280_temperature;BME280_humidity;BME280_pressure;Samples;Min_cycle;Max_cycle;Signal;HPM_P1;HPM_P2
2021/03/23 00:00:59;;;;;;;12.73;7.72;;;0.10;2201.60;;;;;;5087775;28;20037;-77
2021/03/23 00:03:27;;;;;;;15.27;7.25;;;0.10;2201.60;;;;;;5085702;28;20044;-75
2021/03/23 00:05:54;;;;;;;14.68;7.05;;;0.10;2201.60;;;;;;5071007;28;20072;-75
2021/03/23 00:08:25;;;;;;;15.45;7.07;;;0.00;2201.60;;;;;;5081910;28;20013;-74
2021/03/23 00:11:11;;;;;;;12.88;6.65;;;0.10;2201.60;;;;;;5081437;28;20059;-75
2021/03/23 00:13:38;;;;;;;11.88;6.38;;;0.20;2201.60;;;;;;5066530;28;20032;-75
2021/03/23 00:16:05;;;;;;;18.33;7.13;;;0.20;2201.60;;;;;;5076590;28;20040;-76
2021/03/23 00:18:31;;;;;;;10.82;6.22;;;0.10;2201.60;;;;;;5094109;28;20016;-76
2021/03/23 00:21:04;;;;;;;12.77;7.28;;;0.10;2201.60;;;;;;5090120;28;20047;-78
2021/03/23 00:23:30;;;;;;;13.98;7.55;;;0.10;2201.60;;;;;;5090161;28;20020;-78
2021/03/23 00:25:56;;;;;;;16.08;7.70;;;0.10;2201.60;;;;;;5084025;28;20025;-77
2021/03/23 00:28:24;;;;;;;17.88;8.95;;;0.10;2201.60;;;;;;5085120;28;20020;-75
2021/03/23 00:30:53;;;;;;;16.52;9.63;;;0.00;2201.60;;;;;;5090185;28;20056;-78
2021/03/23 00:33:19;;;;;;;17.33;10.35;;;0.10;2201.60;;;;;;5089457;28;20021;-78
2021/03/23 00:35:45;;;;;;;18.40;9.55;;;0.00;2201.60;;;;;;5085363;28;20031;-76
2021/03/23 00:38:12;;;;;;;18.35;9.82;;;0.10;2201.60;;;;;;5093962;28;20032;-78
2021/03/23 00:40:38;;;;;;;18.17;9.73;;;0.00;2201.60;;;;;;5084576;28;20024;-75
2021/03/23 00:43:06;;;;;;;17.35;9.25;;;0.00;2201.60;;;;;;5086369;28;20056;-80
2021/03/23 00:45:35;;;;;;;20.45;11.70;;;0.00;2201.60;;;;;;5087974;28;20004;-75
2021/03/23 00:48:01;;;;;;;22.88;10.25;;;0.00;2201.60;;;;;;5061411;28;20021;-74
2021/03/23 00:50:26;;;;;;;14.88;8.77;;;12.90;2201.60;;;;;;5087717;28;20048;-75
2021/03/23 00:52:52;;;;;;;12.90;7.13;;;12.90;2201.60;;;;;;5090072;28;20033;-74
2021/03/23 00:55:18;;;;;;;14.88;7.60;;;12.90;2201.60;;;;;;5090783;28;20033;-75
2021/03/23 00:57:44;;;;;;;15.77;8.25;;;12.90;2201.60;;;;;;5093060;28;20033;-74
2021/03/23 01:00:14;;;;;;;14.43;7.30;;;12.90;2201.60;;;;;;5088625;28;20035;-77
2021/03/23 01:02:42;;;;;;;13.80;7.53;;;12.90;2201.60;;;;;;5084549;28;20025;-74
2021/03/23 01:05:16;;;;;;;12.80;6.93;;;12.90;2201.60;;;;;;5087611;28;20077;-76
2021/03/23 01:07:42;;;;;;;15.55;6.70;;;13.00;2201.60;;;;;;5088351;28;20020;-76
2021/03/23 01:10:19;;;;;;;13.27;7.10;;;13.00;2201.60;;;;;;5088690;28;20080;-76
2021/03/23 01:12:45;;;;;;;15.27;6.95;;;13.00;2201.60;;;;;;5067374;28;20036;-76
2021/03/23 01:15:15;;;;;;;12.43;6.65;;;13.00;2201.60;;;;;;5069857;28;20033;-76
2021/03/23 01:17:41;;;;;;;13.13;6.85;;;13.10;2201.60;;;;;;5083664;28;20020;-77
2021/03/23 01:20:31;;;;;;;13.57;7.32;;;13.10;2201.60;;;;;;5082596;28;20028;-76
2021/03/23 01:22:58;;;;;;;15.95;7.35;;;13.10;2201.60;;;;;;5073509;28;20039;-75
2021/03/23 01:25:28;;;;;;;16.85;7.38;;;13.10;2201.60;;;;;;5078235;28;20033;-75
2021/03/23 01:27:54;;;;;;;13.38;7.13;;;13.10;2201.60;;;;;;5085341;28;20036;-75
2021/03/23 01:30:25;;;;;;;15.95;7.90;;;13.20;2201.60;;;;;;5092521;28;20016;-76
2021/03/23 01:32:52;;;;;;;12.85;6.90;;;13.20;2201.60;;;;;;5066096;28;20043;-75
2021/03/23 01:35:24;;;;;;;11.75;6.82;;;13.30;2201.60;;;;;;5091137;28;20043;-75
2021/03/23 01:37:50;;;;;;;11.02;6.47;;;13.30;2201.60;;;;;;5093695;28;20004;-76
2021/03/23 01:40:28;;;;;;;13.65;6.82;;;13.30;2201.60;;;;;;5089337;28;20012;-77
2021/03/23 01:43:03;;;;;;;12.38;6.65;;;13.30;2201.60;;;;;;5067450;28;20052;-79
2021/03/23 01:45:43;;;;;;;13.20;7.45;;;13.30;2201.60;;;;;;5076056;28;20008;-75
2021/03/23 01:48:35;;;;;;;14.73;7.05;;;13.40;2201.60;;;;;;5073152;28;20021;-75
2021/03/23 01:51:13;;;;;;;14.48;6.90;;;13.40;2201.60;;;;;;5075141;28;20020;-75
2021/03/23 01:53:49;;;;;;;12.52;6.65;;;13.40;2201.60;;;;;;5084402;28;20017;-74
2021/03/23 01:56:17;;;;;;;12.80;7.45;;;13.40;2201.60;;;;;;5086067;28;20034;-74
2021/03/23 01:58:49;;;;;;;14.70;7.55;;;13.50;2201.60;;;;;;5086912;28;20024;-75
2021/03/23 02:01:18;;;;;;;12.80;6.65;;;13.50;2201.60;;;;;;5086330;28;20035;-77
2021/03/23 02:03:46;;;;;;;11.93;6.90;;;13.50;2201.60;;;;;;5079489;28;20074;-75
2021/03/23 02:06:33;;;;;;;12.80;6.68;;;13.50;2201.60;;;;;;5089573;28;20551;-78
2021/03/23 02:09:00;;;;;;;16.90;7.22;;;13.50;2201.60;;;;;;5066931;28;20074;-75
2021/03/23 02:11:27;;;;;;;15.82;7.35;;;13.50;2201.60;;;;;;5092052;28;20024;-76
2021/03/23 02:14:08;;;;;;;12.63;7.70;;;13.60;2201.60;;;;;;5073890;28;20012;-75
2021/03/23 02:16:34;;;;;;;16.58;7.78;;;13.60;2201.60;;;;;;5054651;28;20040;-75
2021/03/23 02:19:01;;;;;;;15.18;7.03;;;13.60;2201.60;;;;;;5091430;28;20028;-77
2021/03/23 02:21:30;;;;;;;16.98;8.57;;;13.60;2201.60;;;;;;5091105;28;20028;-79
2021/03/23 02:23:56;;;;;;;13.75;7.50;;;13.60;2201.60;;;;;;5079569;28;20017;-75
2021/03/23 02:26:31;;;;;;;14.82;7.32;;;38.40;2201.60;;;;;;5092530;28;20051;-75
2021/03/23 02:29:04;;;;;;;13.90;7.25;;;13.60;2201.60;;;;;;5089073;28;20012;-76
2021/03/23 02:31:33;;;;;;;16.35;8.13;;;13.60;2201.60;;;;;;5088329;28;20024;-78
2021/03/23 02:34:01;;;;;;;23.23;10.98;;;13.70;2201.60;;;;;;5082943;28;20032;-78
2021/03/23 02:36:28;;;;;;;17.40;8.40;;;13.70;2201.60;;;;;;5093202;28;20044;-75
2021/03/23 02:38:55;;;;;;;17.13;8.93;;;13.70;2201.60;;;;;;5089996;28;20020;-76
2021/03/23 02:41:21;;;;;;;21.90;10.68;;;13.70;2201.60;;;;;;5071356;28;20011;-76
2021/03/23 02:43:48;;;;;;;19.92;9.48;;;13.70;2201.60;;;;;;5086424;28;20056;-76
2021/03/23 02:46:37;;;;;;;18.83;7.97;;;38.50;2201.60;;;;;;5093040;28;20012;-76
2021/03/23 02:49:06;;;;;;;18.25;7.93;;;13.70;2201.60;;;;;;5041311;28;20094;-75
2021/03/23 02:51:32;;;;;;;21.20;9.07;;;13.70;2201.60;;;;;;5026552;28;20032;-76
2021/03/23 02:53:58;;;;;;;24.08;11.48;;;38.40;2201.60;;;;;;5046025;28;20045;-77
2021/03/23 02:56:23;;;;;;;21.63;11.32;;;38.40;2201.60;;;;;;5049789;28;20060;-80
2021/03/23 02:58:52;;;;;;;27.55;13.57;;;38.40;2201.60;;;;;;5045132;28;20120;-75
2021/03/23 03:01:18;;;;;;;24.58;10.95;;;38.40;2201.60;;;;;;5029960;28;20034;-77
2021/03/23 03:03:44;;;;;;;17.13;8.82;;;38.50;2201.60;;;;;;5040799;28;20065;-74
2021/03/23 03:06:12;;;;;;;18.95;9.35;;;38.50;2201.60;;;;;;5026457;28;20026;-75
2021/03/23 03:08:39;;;;;;;21.60;11.00;;;38.50;2201.60;;;;;;5025113;28;20412;-75
2021/03/23 03:11:05;;;;;;;15.80;8.55;;;38.60;2201.60;;;;;;5045453;28;20037;-75
2021/03/23 03:13:31;;;;;;;18.73;9.60;;;39.00;2201.60;;;;;;5030296;28;20040;-77
2021/03/23 03:16:00;;;;;;;17.58;7.97;;;38.60;2201.60;;;;;;5042007;28;20021;-75
2021/03/23 03:18:28;;;;;;;13.60;7.38;;;38.60;2201.60;;;;;;5041569;28;20026;-75
2021/03/23 03:20:56;;;;;;;12.02;7.60;;;38.60;2201.60;;;;;;5085156;28;20302;-75
2021/03/23 03:23:22;;;;;;;16.77;7.15;;;38.60;2201.60;;;;;;5080459;28;20036;-74
2021/03/23 03:25:49;;;;;;;11.55;7.45;;;38.60;2201.60;;;;;;5086323;28;20036;-75
2021/03/23 03:28:16;;;;;;;12.63;7.13;;;38.60;2201.60;;;;;;5085017;28;20088;-77
2021/03/23 03:30:43;;;;;;;12.40;7.30;;;38.60;2201.60;;;;;;5082504;28;20016;-75
2021/03/23 03:33:12;;;;;;;11.60;7.30;;;38.60;2201.60;;;;;;5072054;28;20061;-77
2021/03/23 03:35:43;;;;;;;18.38;7.45;;;38.60;2201.60;;;;;;5072017;28;20029;-76
2021/03/23 03:38:10;;;;;;;15.18;7.10;;;38.70;2201.60;;;;;;5091509;28;20016;-75
2021/03/23 03:40:41;;;;;;;11.93;6.32;;;38.70;2201.60;;;;;;5078211;28;19997;-76
2021/03/23 03:43:08;;;;;;;11.98;7.03;;;38.70;2201.60;;;;;;5069522;28;20047;-78
2021/03/23 03:45:34;;;;;;;14.85;6.45;;;38.70;2201.60;;;;;;5074384;28;20027;-76
2021/03/23 03:48:00;;;;;;;12.02;6.75;;;38.80;2201.60;;;;;;5082779;28;20005;-75
2021/03/23 03:50:36;;;;;;;11.07;6.45;;;38.70;2201.60;;;;;;5070561;28;20044;-75
2021/03/23 03:53:03;;;;;;;12.15;7.25;;;38.70;2201.60;;;;;;5081801;28;20035;-75
2021/03/23 03:55:34;;;;;;;11.52;6.82;;;38.70;2201.60;;;;;;5074659;28;20457;-76
2021/03/23 03:58:00;;;;;;;11.93;6.35;;;38.70;2201.60;;;;;;5069731;28;20029;-78
2021/03/23 04:00:29;;;;;;;10.02;6.28;;;38.70;2201.60;;;;;;5082210;28;20032;-77
2021/03/23 04:02:57;;;;;;;12.90;6.65;;;38.70;2201.60;;;;;;5064781;28;20485;-76
2021/03/23 04:05:34;;;;;;;12.02;6.63;;;38.70;2201.60;;;;;;5083125;28;20024;-74
2021/03/23 04:08:01;;;;;;;14.15;6.35;;;38.70;2201.60;;;;;;5066995;28;20048;-76
2021/03/23 04:10:29;;;;;;;9.73;6.43;;;38.70;2201.60;;;;;;5081651;28;20021;-75
2021/03/23 04:12:54;;;;;;;15.68;6.97;;;38.70;2201.60;;;;;;5084533;28;20052;-77
2021/03/23 04:15:22;;;;;;;11.75;6.78;;;38.70;2201.60;;;;;;5066444;28;20029;-76
2021/03/23 04:17:49;;;;;;;13.73;7.30;;;38.70;2201.60;;;;;;5085072;28;20060;-75
2021/03/23 04:20:16;;;;;;;15.48;6.82;;;38.70;2201.60;;;;;;5066015;28;20052;-77
2021/03/23 04:22:42;;;;;;;13.23;7.22;;;38.70;2201.60;;;;;;5064056;28;20051;-75
2021/03/23 04:25:10;;;;;;;15.85;7.93;;;38.70;2201.60;;;;;;5084086;28;20021;-76
2021/03/23 04:27:36;;;;;;;30.50;11.18;;;38.70;2201.60;;;;;;5069930;28;20040;-77
2021/03/23 04:30:04;;;;;;;14.43;7.80;;;38.70;2201.60;;;;;;5077337;28;20029;-76
2021/03/23 04:32:30;;;;;;;12.85;7.38;;;38.70;2201.60;;;;;;5073649;28;20017;-77
2021/03/23 04:34:56;;;;;;;15.13;6.70;;;38.70;2201.60;;;;;;5067853;28;20535;-77
2021/03/23 04:37:22;;;;;;;14.07;6.95;;;38.70;2201.60;;;;;;5071913;28;20024;-75
2021/03/23 04:39:47;;;;;;;20.15;7.32;;;38.70;2201.60;;;;;;5086092;28;20041;-76
2021/03/23 04:42:13;;;;;;;12.38;6.85;;;38.70;2201.60;;;;;;5073839;28;20052;-77
2021/03/23 04:44:39;;;;;;;11.82;7.05;;;38.70;2201.60;;;;;;5089039;28;20027;-76
2021/03/23 04:47:08;;;;;;;13.63;7.22;;;38.70;2201.60;;;;;;5084715;28;20028;-77
2021/03/23 04:49:34;;;;;;;13.57;7.90;;;38.70;2201.60;;;;;;5082327;28;20020;-76
2021/03/23 04:52:06;;;;;;;15.65;7.55;;;38.60;2201.60;;;;;;5061113;28;20027;-75
2021/03/23 04:54:31;;;;;;;20.17;8.88;;;38.60;2201.60;;;;;;5071002;28;20083;-75
2021/03/23 04:56:58;;;;;;;20.98;9.07;;;38.50;2201.60;;;;;;5071558;28;20031;-75
2021/03/23 04:59:24;;;;;;;24.88;11.05;;;38.50;2201.60;;;;;;5091904;28;20036;-77
2021/03/23 05:01:50;;;;;;;19.20;10.98;;;38.50;2201.60;;;;;;5083905;28;20020;-77
2021/03/23 05:04:18;;;;;;;20.33;10.43;;;38.40;2201.60;;;;;;5086373;28;20048;-76
2021/03/23 05:06:47;;;;;;;18.27;9.85;;;13.60;2201.60;;;;;;5074901;28;20019;-77
2021/03/23 05:09:13;;;;;;;29.35;14.25;;;13.40;2201.60;;;;;;5072214;28;20027;-77
2021/03/23 05:11:40;;;;;;;21.23;10.00;;;12.90;2201.60;;;;;;5078163;28;20111;-74
2021/03/23 05:14:08;;;;;;;21.63;11.70;;;0.40;2201.60;;;;;;5077443;28;20504;-80
2021/03/23 05:16:35;;;;;;;22.00;9.80;;;;;;;;;;5062078;28;20513;-77
2021/03/23 05:19:01;;;;;;;22.52;10.73;;;;;;;;;;5076018;28;20039;-77
2021/03/23 05:21:26;;;;;;;20.80;9.48;;;51.20;2227.20;;;;;;5075987;28;20024;-82
2021/03/23 05:23:57;;;;;;;22.65;11.35;;;51.40;2227.20;;;;;;5084836;28;20048;-80
2021/03/23 05:26:23;;;;;;;15.35;8.25;;;51.90;2227.20;;;;;;5074763;28;20024;-74
2021/03/23 05:28:49;;;;;;;16.90;9.48;;;77.00;2227.20;;;;;;5071131;28;20107;-85
2021/03/23 05:31:15;;;;;;;18.25;10.13;;;77.50;2201.60;;;;;;5051482;28;20554;-75
2021/03/23 05:33:42;;;;;;;17.85;10.25;;;102.40;2176.00;;;;;;5076122;28;20385;-75
2021/03/23 05:36:09;;;;;;;22.20;11.55;;;102.70;2048.00;;;;;;5064328;28;20393;-78
2021/03/23 05:38:34;;;;;;;21.40;10.77;;;103.10;2073.60;;;;;;5072602;28;20024;-79
2021/03/23 05:41:12;;;;;;;13.68;8.75;;;128.30;2022.40;;;;;;5067068;28;20154;-83
2021/03/23 05:44:03;;;;;;;20.77;9.55;;;128.50;1868.80;;;;;;5073385;28;20474;-82
2021/03/23 05:46:44;;;;;;;32.00;13.20;;;153.80;1843.20;;;;;;5067206;28;20039;-77
2021/03/23 05:49:35;;;;;;;15.57;10.23;;;179.20;1766.40;;;;;;5068827;28;20028;-78
2021/03/23 05:52:04;;;;;;;22.85;11.68;;;204.90;1587.20;;;;;;5070179;28;20029;-69
2021/03/23 05:54:34;;;;;;;16.13;10.15;;;205.30;1638.40;;;;;;5054729;28;20431;-77
2021/03/23 05:57:06;;;;;;;19.40;11.35;;;205.40;1484.80;;;;;;5073122;28;20111;-71
2021/03/23 05:59:31;;;;;;;23.45;11.60;;;230.60;1459.20;;;;;;5069605;28;20024;-70
2021/03/23 06:02:06;;;;;;;32.85;15.25;;;231.20;1382.40;;;;;;5065664;28;20078;-67
2021/03/23 06:05:08;;;;;;;38.35;15.38;;;;;;;;;;5065212;28;20078;-68
2021/03/23 06:07:38;;;;;;;35.40;12.13;;;;;;;;;;4971997;28;20366;-67
2021/03/23 06:10:14;;;;;;;18.65;10.25;;;;;;;;;;4955383;28;20034;-68
2021/03/23 06:12:43;;;;;;;15.50;9.10;;;;;;;;;;4972209;28;20449;-68
2021/03/23 06:15:09;;;;;;;14.55;8.77;;;;;;;;;;4971546;28;20050;-69
2021/03/23 06:17:44;;;;;;;17.50;9.73;;;;;;;;;;4971964;28;20030;-71
2021/03/23 06:20:19;;;;;;;17.52;9.50;;;;;;;;;;4968068;28;20461;-76
2021/03/23 06:22:54;;;;;;;16.77;9.93;;;;;;;;;;4982115;28;20160;-71
2021/03/23 06:25:23;;;;;;;15.40;9.93;;;;;;;;;;4971727;28;20445;-69
2021/03/23 06:27:57;;;;;;;20.77;10.82;;;;;;;;;;4970689;28;20042;-69
2021/03/23 06:30:42;;;;;;;15.93;11.07;;;;;;;;;;4970324;28;20457;-77
2021/03/23 06:33:09;;;;;;;16.63;10.13;;;;;;;;;;4971459;28;20038;-71
2021/03/23 06:35:46;;;;;;;16.30;9.27;;;;;;;;;;4960366;28;20054;-69
2021/03/23 06:38:20;;;;;;;17.23;10.65;;;;;;;;;;4973288;28;20037;-70
2021/03/23 06:41:06;;;;;;;24.30;14.20;;;;;;;;;;5001090;28;20115;-73
2021/03/23 06:43:32;;;;;;;33.67;17.17;;;;;;;;;;5068483;28;20031;-72
2021/03/23 06:46:18;;;;;;;19.30;11.70;;;;;;;;;;5071581;28;20070;-69
2021/03/23 06:48:45;;;;;;;22.30;12.18;;;;;;;;;;5056184;28;20033;-70
2021/03/23 06:51:16;;;;;;;23.67;14.32;;;;;;;;;;5072039;28;20398;-71
2021/03/23 06:53:43;;;;;;;25.52;14.00;;;;;;;;;;5070857;28;20024;-69
2021/03/23 06:56:21;;;;;;;18.08;10.18;;;;;;;;;;5071227;28;20037;-72
2021/03/23 06:58:48;;;;;;;21.92;11.43;;;;;;;;;;5071583;28;20024;-72
2021/03/23 07:01:19;;;;;;;20.02;9.77;;;;;;;;;;5071622;28;20074;-71
2021/03/23 07:03:46;;;;;;;14.88;9.32;;;;;;;;;;5070807;28;20051;-71
2021/03/23 07:06:18;;;;;;;15.27;9.23;;;;;;;;;;5067284;28;20028;-70
2021/03/23 07:08:44;;;;;;;15.60;9.25;;;;;;;;;;5071309;28;20544;-72
2021/03/23 07:11:11;;;;;;;15.85;9.18;;;;;;;;;;5071786;28;20024;-66
2021/03/23 07:13:39;;;;;;;18.50;10.43;;;;;;;;;;5070724;28;20024;-67
2021/03/23 07:16:11;;;;;;;14.57;9.30;;;;;;;;;;5069927;28;20162;-70
2021/03/23 07:18:45;;;;;;;24.58;13.70;;;;;;;;;;5069500;28;20060;-70
2021/03/23 07:21:11;;;;;;;;;;;;;;;;;;5072566;28;20091;-70
2021/03/23 07:23:37;;;;;;;13.57;8.38;;;;;;;;;;5072013;28;19958;-70
2021/03/23 07:26:18;;;;;;;14.02;7.93;;;;;;;;;;5071118;28;20029;-69
2021/03/23 07:28:45;;;;;;;16.67;8.93;;;;;;;;;;5071259;28;20028;-68
2021/03/23 07:31:21;;;;;;;13.73;8.25;;;;;;;;;;5067781;28;20025;-70
2021/03/23 07:34:08;;;;;;;14.50;8.15;;;409.60;870.40;;;;;;5064825;28;20032;-70
2021/03/23 07:36:58;;;;;;;14.40;8.85;;;409.70;844.80;;;;;;5069943;28;20056;-69
2021/03/23 07:39:41;;;;;;;14.40;9.20;;;410.10;896.00;;;;;;5070939;28;20024;-72
2021/03/23 07:42:20;;;;;;;14.75;7.70;;;435.40;870.40;;;;;;5071893;28;20079;-68
2021/03/23 07:45:20;;;;;;;10.90;7.25;;;460.80;921.60;;;;;;5069275;28;20035;-71
2021/03/23 07:48:10;;;;;;;11.38;7.50;;;461.10;793.60;;;;;;5067825;28;20028;-69
2021/03/23 07:50:38;;;;;;;10.77;7.57;;;409.80;844.80;;;;;;5070752;28;20044;-71
2021/03/23 07:53:41;;;;;;;12.88;7.50;;;435.60;870.40;;;;;;5071184;28;20115;-71
2021/03/23 07:56:35;;;;;;;16.38;8.13;;;435.30;844.80;;;;;;5067197;28;20123;-69
2021/03/23 07:59:21;;;;;;;15.25;8.13;;;;;;;;;;5069533;28;20051;-70
2021/03/23 08:02:00;;;;;;;13.05;8.77;;;461.20;870.40;;;;;;5069783;28;20031;-69
2021/03/23 08:04:47;;;;;;;13.63;7.55;;;435.90;844.80;;;;;;5063687;28;20025;-70
2021/03/23 08:07:18;;;;;;;13.20;7.85;;;435.20;972.80;;;;;;5069842;28;20040;-70
2021/03/23 08:10:40;;;;;;;9.88;6.80;;;384.40;896.00;;;;;;5070386;28;20029;-70
2021/03/23 08:13:17;;;;;;;24.25;7.82;;;333.30;998.40;;;;;;5003565;28;20204;-69
2021/03/23 08:15:48;;;;;;;13.25;7.10;;;308.10;1024.00;;;;;;4989879;28;20038;-69
2021/03/23 08:18:16;;;;;;;11.40;6.65;;;307.80;1049.60;;;;;;4987543;28;20046;-70
2021/03/23 08:21:19;;;;;;;10.38;6.88;;;307.90;1075.20;;;;;;4989167;28;20058;-69
2021/03/23 08:24:17;;;;;;;10.20;6.50;;;282.10;1100.80;;;;;;4973666;28;20126;-71
2021/03/23 08:27:03;;;;;;;11.60;7.00;;;281.90;1152.00;;;;;;4905360;29;20059;-70
2021/03/23 08:30:01;;;;;;;10.82;6.80;;;256.50;1177.60;;;;;;4897484;29;20039;-73
2021/03/23 08:32:40;;;;;;;9.65;6.47;;;230.90;1228.80;;;;;;4884771;29;20047;-72
2021/03/23 08:35:50;;;;;;;11.57;6.57;;;205.60;1305.60;;;;;;4879536;29;20033;-71
2021/03/23 08:38:31;;;;;;;10.43;6.50;;;205.30;1459.20;;;;;;4814347;29;20099;-72
2021/03/23 08:41:15;;;;;;;10.90;6.13;;;205.30;1433.60;;;;;;4806136;29;20051;-71
2021/03/23 08:43:43;;;;;;;9.50;6.03;;;205.00;1408.00;;;;;;4824481;29;20030;-70
2021/03/23 08:46:17;;;;;;;10.00;6.00;;;;;;;;;;4836562;29;20091;-72
2021/03/23 08:48:48;;;;;;;10.40;6.63;;;179.70;1459.20;;;;;;4830904;29;20195;-70
2021/03/23 08:51:20;;;;;;;11.25;6.70;;;179.70;1536.00;;;;;;4826624;29;20103;-70
2021/03/23 08:53:50;;;;;;;10.85;6.22;;;179.60;1510.40;;;;;;4832493;29;20034;-71
2021/03/23 08:56:36;;;;;;;9.50;5.97;;;179.80;1484.80;;;;;;4841286;29;20046;-68
2021/03/23 08:59:01;;;;;;;11.73;6.20;;;179.60;1484.80;;;;;;4841204;29;20084;-77
2021/03/23 09:01:42;;;;;;;8.32;5.07;;;179.70;1536.00;;;;;;4849578;29;20516;-73
2021/03/23 09:04:10;;;;;;;8.60;5.30;;;179.20;1459.20;;;;;;4910322;29;20043;-71
2021/03/23 09:07:07;;;;;;;10.77;5.20;;;179.30;1459.20;;;;;;4905249;29;20048;-72
2021/03/23 09:09:35;;;;;;;11.02;5.22;;;154.50;1459.20;;;;;;4934757;28;20130;-72
2021/03/23 09:12:42;;;;;;;13.85;5.60;;;154.50;1510.40;;;;;;5013540;28;20037;-71
2021/03/23 09:15:14;;;;;;;11.18;5.80;;;154.50;1459.20;;;;;;5072692;28;20021;-69
2021/03/23 09:18:05;;;;;;;11.60;6.38;;;179.20;1484.80;;;;;;5074148;28;20025;-71
2021/03/23 09:20:51;;;;;;;10.32;6.53;;;179.20;1817.60;;;;;;5072929;28;20032;-70
2021/03/23 09:23:24;;;;;;;13.95;6.03;;;154.40;1484.80;;;;;;4973053;28;20075;-74
2021/03/23 09:25:58;;;;;;;9.80;6.10;;;154.40;1536.00;;;;;;4973031;28;20110;-71
2021/03/23 09:28:30;;;;;;;11.18;6.50;;;154.20;1536.00;;;;;;4972677;28;20030;-70
2021/03/23 09:31:10;;;;;;;9.52;6.03;;;154.30;1536.00;;;;;;4972075;28;20559;-71
2021/03/23 09:33:41;;;;;;;11.60;6.78;;;179.30;1536.00;;;;;;4972287;28;20042;-73
2021/03/23 09:36:08;;;;;;;14.60;7.43;;;154.50;1510.40;;;;;;4972752;28;20035;-69
2021/03/23 09:38:38;;;;;;;15.38;6.28;;;179.50;1536.00;;;;;;4972597;28;20030;-71
2021/03/23 09:41:06;;;;;;;11.20;6.57;;;179.50;1510.40;;;;;;4972497;28;20128;-71
2021/03/23 09:43:39;;;;;;;8.48;6.13;;;179.20;1484.80;;;;;;4972644;28;20023;-73
2021/03/23 09:46:15;;;;;;;10.68;5.55;;;154.40;1459.20;;;;;;4972706;28;20222;-72
2021/03/23 09:48:57;;;;;;;10.77;5.30;;;154.40;1510.40;;;;;;4972206;28;20366;-70
2021/03/23 09:51:43;;;;;;;8.63;4.60;;;179.20;1484.80;;;;;;4973106;28;20062;-70
2021/03/23 09:54:18;;;;;;;13.52;5.65;;;154.40;1484.80;;;;;;4966272;28;20046;-71
2021/03/23 09:56:48;;;;;;;8.75;5.20;;;179.20;1510.40;;;;;;4968210;28;20542;-72
2021/03/23 09:59:18;;;;;;;9.98;4.93;;;179.30;1459.20;;;;;;4974524;28;20386;-72
2021/03/23 10:02:19;;;;;;;8.25;4.80;;;179.30;1459.20;;;;;;5073847;28;20111;-71
2021/03/23 10:04:46;;;;;;;9.02;5.18;;;179.30;1433.60;;;;;;5072157;28;20032;-72
2021/03/23 10:07:28;;;;;;;12.32;5.18;;;179.30;1433.60;;;;;;5048986;28;20036;-71
2021/03/23 10:09:54;;;;;;;11.50;5.22;;;179.40;1433.60;;;;;;5048093;28;20555;-72
2021/03/23 10:12:31;;;;;;;11.75;5.55;;;179.30;1433.60;;;;;;5070150;28;20036;-73
2021/03/23 10:14:57;;;;;;;10.10;5.25;;;179.40;1459.20;;;;;;5070105;28;20540;-71
2021/03/23 10:17:27;;;;;;;10.77;4.95;;;179.30;1459.20;;;;;;5070762;28;20020;-70
2021/03/23 10:20:00;;;;;;;8.95;5.30;;;179.40;1459.20;;;;;;5055103;28;20100;-71
2021/03/23 10:22:31;;;;;;;9.43;5.20;;;179.60;1484.80;;;;;;5070547;28;20540;-70
2021/03/23 10:24:59;;;;;;;8.23;5.22;;;179.70;1382.40;;;;;;5072213;28;20029;-69
2021/03/23 10:27:31;;;;;;;9.02;4.75;;;179.50;1356.80;;;;;;5073378;28;20123;-71
2021/03/23 10:30:17;;;;;;;7.28;4.93;;;179.30;1382.40;;;;;;5070511;28;20082;-70
2021/03/23 10:32:47;;;;;;;11.40;5.07;;;179.30;1433.60;;;;;;5066517;28;20101;-68
2021/03/23 10:35:48;;;;;;;10.93;5.53;;;179.50;1408.00;;;;;;5067110;28;20024;-70
2021/03/23 10:38:19;;;;;;;9.23;5.32;;;179.70;1408.00;;;;;;5069395;28;20028;-69
2021/03/23 10:40:53;;;;;;;7.50;4.82;;;179.80;1382.40;;;;;;5067563;28;20167;-79
2021/03/23 10:43:43;;;;;;;8.80;5.00;;;180.10;1408.00;;;;;;5054932;28;20029;-75
2021/03/23 10:46:45;;;;;;;6.38;4.28;;;180.10;1331.20;;;;;;5065198;28;20486;-71
2021/03/23 10:49:14;;;;;;;7.63;4.32;;;179.90;1305.60;;;;;;5007594;28;20030;-70
2021/03/23 10:51:44;;;;;;;7.45;4.20;;;179.80;1305.60;;;;;;5009369;28;20451;-71
2021/03/23 10:54:12;;;;;;;14.15;4.80;;;179.90;1305.60;;;;;;5010376;28;20144;-70
2021/03/23 10:56:43;;;;;;;8.05;4.00;;;179.90;1305.60;;;;;;5009946;28;20120;-70
2021/03/23 10:59:21;;;;;;;6.43;3.92;;;179.80;1280.00;;;;;;5007857;28;20026;-71
2021/03/23 11:02:20;;;;;;;8.50;4.50;;;179.90;1280.00;;;;;;5004922;28;20554;-75
2021/03/23 11:04:59;;;;;;;7.45;4.35;;;180.00;1280.00;;;;;;4983625;28;20064;-74
2021/03/23 11:07:27;;;;;;;6.65;4.38;;;180.00;1356.80;;;;;;5007515;28;20045;-76
2021/03/23 11:10:00;;;;;;;9.55;4.72;;;204.80;1356.80;;;;;;5010227;28;20105;-75
2021/03/23 11:12:29;;;;;;;7.68;4.85;;;204.80;1305.60;;;;;;5008842;28;20121;-74
2021/03/23 11:14:58;;;;;;;10.93;5.70;;;204.80;1331.20;;;;;;5007207;28;20491;-73
2021/03/23 11:17:26;;;;;;;8.10;5.10;;;204.90;1331.20;;;;;;4991888;28;20404;-74
2021/03/23 11:19:56;;;;;;;8.85;5.00;;;204.90;1280.00;;;;;;5009726;28;20521;-74
2021/03/23 11:22:33;;;;;;;7.88;4.82;;;205.00;1305.60;;;;;;5018105;28;20068;-74
2021/03/23 11:24:59;;;;;;;7.45;4.97;;;204.90;1331.20;;;;;;5071363;28;20024;-74
2021/03/23 11:27:28;;;;;;;9.95;5.53;;;204.80;1305.60;;;;;;5056262;28;20047;-71
2021/03/23 11:29:59;;;;;;;10.70;5.40;;;204.90;1382.40;;;;;;5069315;28;20102;-70
2021/03/23 11:32:27;;;;;;;8.68;5.00;;;204.90;1331.20;;;;;;5071674;28;20028;-72
2021/03/23 11:34:53;;;;;;;8.55;4.90;;;205.00;1331.20;;;;;;5068980;28;20029;-69
2021/03/23 11:37:19;;;;;;;9.10;4.57;;;205.00;1356.80;;;;;;5068760;28;20482;-72
2021/03/23 11:39:46;;;;;;;7.75;4.65;;;205.10;1305.60;;;;;;5070631;28;20037;-69
2021/03/23 11:42:47;;;;;;;9.02;4.80;;;205.10;1280.00;;;;;;5072792;28;20092;-72
2021/03/23 11:45:25;;;;;;;10.98;4.45;;;204.90;1203.20;;;;;;4992631;28;20038;-76
2021/03/23 11:48:01;;;;;;;6.07;4.00;;;205.00;1280.00;;;;;;4994885;28;20051;-72
2021/03/23 11:50:30;;;;;;;8.70;4.43;;;205.00;1254.40;;;;;;4992708;28;20038;-71
2021/03/23 11:52:56;;;;;;;7.57;4.45;;;205.20;1305.60;;;;;;4986728;28;20148;-71
2021/03/23 11:55:44;;;;;;;6.63;4.05;;;205.00;1228.80;;;;;;4998634;28;20439;-73
2021/03/23 11:58:11;;;;;;;9.38;4.72;;;205.10;1228.80;;;;;;4995505;28;20117;-70
2021/03/23 12:00:37;;;;;;;6.72;4.70;;;205.20;1254.40;;;;;;4992750;28;20037;-71
2021/03/23 12:03:06;;;;;;;8.07;4.50;;;205.30;1228.80;;;;;;4993627;28;20031;-71
2021/03/23 12:05:35;;;;;;;10.25;4.88;;;205.60;1254.40;;;;;;4979540;28;20038;-72
2021/03/23 12:08:01;;;;;;;7.18;3.90;;;230.40;1254.40;;;;;;4971659;28;20843;-72
2021/03/23 12:11:00;;;;;;;9.15;4.28;;;230.50;1177.60;;;;;;4993770;28;20038;-70
2021/03/23 12:13:41;;;;;;;8.32;4.18;;;;;;;;;;4995587;28;20038;-69
2021/03/23 12:16:21;;;;;;;6.72;4.45;;;231.10;1715.20;;;;;;4994224;28;20030;-68
2021/03/23 12:18:57;;;;;;;7.03;4.28;;;231.10;1203.20;;;;;;4999255;28;20125;-69
2021/03/23 12:21:25;;;;;;;6.35;3.67;;;231.20;1152.00;;;;;;5055522;28;20032;-72
2021/03/23 12:23:51;;;;;;;6.15;4.15;;;231.30;1152.00;;;;;;5078010;28;20029;-74
2021/03/23 12:26:17;;;;;;;8.55;4.35;;;231.30;1100.80;;;;;;5076869;28;20071;-72
2021/03/23 12:28:44;;;;;;;6.45;4.30;;;231.30;1100.80;;;;;;5075874;28;20056;-72
2021/03/23 12:31:10;;;;;;;9.13;4.32;;;231.30;1100.80;;;;;;5075377;28;20111;-72
2021/03/23 12:33:36;;;;;;;7.03;4.15;;;256.20;1100.80;;;;;;5070445;28;20473;-71
2021/03/23 12:36:04;;;;;;;8.02;4.18;;;256.10;1075.20;;;;;;5074347;28;20123;-70
2021/03/23 12:38:30;;;;;;;6.35;4.07;;;256.10;1075.20;;;;;;5073062;28;20020;-72
2021/03/23 12:40:55;;;;;;;6.82;4.05;;;256.80;1100.80;;;;;;5073855;28;20043;-70
2021/03/23 12:43:26;;;;;;;6.30;4.10;;;256.40;1049.60;;;;;;5076483;28;20412;-71
2021/03/23 12:45:55;;;;;;;7.13;3.88;;;256.30;1075.20;;;;;;5072336;28;20032;-73
2021/03/23 12:48:20;;;;;;;7.80;4.05;;;256.10;1075.20;;;;;;5078803;28;20131;-72
2021/03/23 12:50:46;;;;;;;6.68;4.38;;;231.30;1100.80;;;;;;5073755;28;20541;-71
2021/03/23 12:53:15;;;;;;;6.88;3.95;;;231.20;1100.80;;;;;;5058594;28;20067;-75
2021/03/23 12:55:47;;;;;;;7.93;3.60;;;231.30;1126.40;;;;;;5067361;28;20126;-72
2021/03/23 12:58:16;;;;;;;7.40;3.75;;;256.10;1100.80;;;;;;5056199;28;20013;-71